createdAt,value
2022-08-23T00:02:26.644Z,68.46
2022-08-23T00:05:08.349Z,67.40
2022-08-23T00:07:39.700Z,67.27
2022-08-23T00:10:08.914Z,67.30
2022-08-23T00:12:36.177Z,67.76
2022-08-23T00:15:04.362Z,67.48
2022-08-23T00:17:34.003Z,66.35
2022-08-23T00:20:01.662Z,65.96
2022-08-23T00:22:28.593Z,66.33
2022-08-23T00:24:56.797Z,66.20
2022-08-23T00:27:23.663Z,66.62
2022-08-23T00:29:53.011Z,66.80
2022-08-23T00:32:21.932Z,66.84
2022-08-23T00:34:49.135Z,67.18
2022-08-23T00:37:17.538Z,67.26
2022-08-23T00:39:45.696Z,67.50
2022-08-23T00:42:34.981Z,68.12
2022-08-23T00:45:23.762Z,68.49
2022-08-23T00:47:52.857Z,68.66
2022-08-23T00:50:25.917Z,69.94
2022-08-23T00:53:01.961Z,70.16
2022-08-23T00:55:29.796Z,68.99
2022-08-23T00:57:59.180Z,68.17
2022-08-23T01:00:26.575Z,68.80
2022-08-23T01:02:54.502Z,68.42
2022-08-23T01:05:25.946Z,69.69
2022-08-23T01:07:55.605Z,70.55
2022-08-23T01:10:27.809Z,70.72
2022-08-23T01:13:07.150Z,69.28
2022-08-23T01:15:37.202Z,68.70
2022-08-23T01:18:07.730Z,68.46
2022-08-23T01:20:42.754Z,68.12
2022-08-23T01:23:22.744Z,68.56
2022-08-23T01:25:50.180Z,68.24
2022-08-23T01:28:18.291Z,68.52
2022-08-23T01:30:47.824Z,68.94
2022-08-23T01:33:16.472Z,69.37
2022-08-23T01:35:48.010Z,69.73
2022-08-23T01:38:15.058Z,69.84
2022-08-23T01:40:44.941Z,71.00
2022-08-23T01:43:13.639Z,70.53
2022-08-23T01:45:42.695Z,70.35
2022-08-23T01:48:11.557Z,70.55
2022-08-23T01:50:39.437Z,70.56
2022-08-23T01:53:08.008Z,70.84
2022-08-23T01:55:35.696Z,70.66
2022-08-23T01:58:05.993Z,72.53
2022-08-23T02:00:36.117Z,73.15
2022-08-23T02:03:03.838Z,75.20
2022-08-23T02:05:31.541Z,72.99
2022-08-23T02:08:18.823Z,72.30
2022-08-23T02:10:45.738Z,73.04
2022-08-23T02:13:14.990Z,74.13
2022-08-23T02:15:43.206Z,72.73
2022-08-23T02:18:11.133Z,71.98
2022-08-23T02:20:43.974Z,72.64
2022-08-23T02:23:10.955Z,72.29
2022-08-23T02:25:37.816Z,72.41
2022-08-23T02:28:05.192Z,72.08
2022-08-23T02:30:33.532Z,72.36
2022-08-23T02:33:01.411Z,72.49
2022-08-23T02:35:33.365Z,72.09
2022-08-23T02:38:03.605Z,72.06
2022-08-23T02:40:30.759Z,71.96
2022-08-23T02:42:58.125Z,72.62
2022-08-23T02:45:25.023Z,72.02
2022-08-23T02:47:53.667Z,71.93
2022-08-23T02:50:25.647Z,71.97
2022-08-23T02:52:52.766Z,72.10
2022-08-23T02:55:20.565Z,72.45
2022-08-23T02:57:47.556Z,72.47
2022-08-23T03:00:16.267Z,73.18
2022-08-23T03:02:43.973Z,73.43
2022-08-23T03:05:13.536Z,73.32
2022-08-23T03:07:41.413Z,73.48
2022-08-23T03:10:10.227Z,73.44
2022-08-23T03:12:40.734Z,73.28
2022-08-23T03:15:08.627Z,73.08
2022-08-23T03:17:35.877Z,73.73
2022-08-23T03:20:07.573Z,73.58
2022-08-23T03:22:35.833Z,73.50
2022-08-23T03:25:03.192Z,73.39
2022-08-23T03:27:44.878Z,74.62
2022-08-23T03:30:19.196Z,74.23
2022-08-23T03:32:52.448Z,74.60
2022-08-23T03:35:19.632Z,74.42
2022-08-23T03:37:49.101Z,74.43
2022-08-23T03:40:18.392Z,74.55
2022-08-23T03:42:45.318Z,74.59
2022-08-23T03:45:13.726Z,74.36
2022-08-23T03:47:40.780Z,74.44
2022-08-23T03:50:08.493Z,75.07
2022-08-23T03:52:37.204Z,75.06
2022-08-23T03:55:06.630Z,75.00
2022-08-23T03:57:35.444Z,74.81
2022-08-23T04:00:03.774Z,75.41
2022-08-23T04:02:41.458Z,75.68
2022-08-23T04:05:11.023Z,75.31
2022-08-23T04:07:52.760Z,75.28
2022-08-23T04:10:24.776Z,75.40
2022-08-23T04:12:55.090Z,75.21
2022-08-23T04:15:22.821Z,76.45
2022-08-23T04:17:49.694Z,75.78
2022-08-23T04:20:17.380Z,75.79
2022-08-23T04:22:54.518Z,75.46
2022-08-23T04:25:34.909Z,75.26
2022-08-23T04:28:04.330Z,75.55
2022-08-23T04:30:32.666Z,75.64
2022-08-23T04:32:59.930Z,75.93
2022-08-23T04:35:29.857Z,75.42
2022-08-23T04:37:57.034Z,75.41
2022-08-23T04:40:44.736Z,75.16
2022-08-23T04:43:12.873Z,75.36
2022-08-23T04:45:41.048Z,75.34
2022-08-23T04:48:14.136Z,75.77
2022-08-23T04:50:45.371Z,75.80
2022-08-23T04:53:15.345Z,76.73
2022-08-23T04:55:54.940Z,76.78
2022-08-23T04:58:22.055Z,76.20
2022-08-23T05:00:51.947Z,75.90
2022-08-23T05:03:23.942Z,75.98
2022-08-23T05:05:52.841Z,76.33
2022-08-23T05:08:22.203Z,76.44
2022-08-23T05:10:49.113Z,77.13
2022-08-23T05:13:17.479Z,79.39
2022-08-23T05:15:44.470Z,80.24
2022-08-23T05:18:11.718Z,78.69
2022-08-23T05:20:40.208Z,77.06
2022-08-23T05:23:08.088Z,77.40
2022-08-23T05:25:52.480Z,75.15
2022-08-23T05:28:41.993Z,71.66
2022-08-23T05:31:12.488Z,69.09
2022-08-23T05:33:45.525Z,68.55
2022-08-23T05:36:15.178Z,67.78
2022-08-23T05:38:43.285Z,67.64
2022-08-23T05:41:10.601Z,67.53
2022-08-23T05:43:39.022Z,67.73
2022-08-23T05:46:12.172Z,67.26
2022-08-23T05:48:46.902Z,66.01
2022-08-23T05:51:18.282Z,65.31
2022-08-23T05:53:47.832Z,64.50
2022-08-23T05:56:17.518Z,64.90
2022-08-23T05:58:47.120Z,63.79
2022-08-23T06:01:15.060Z,62.90
2022-08-23T06:03:44.214Z,62.17
2022-08-23T06:06:12.946Z,61.16
2022-08-23T06:08:40.621Z,59.46
2022-08-23T06:11:10.522Z,59.35
2022-08-23T06:13:44.570Z,58.46
2022-08-23T06:16:16.892Z,57.53
2022-08-23T06:18:45.415Z,57.64
2022-08-23T06:21:42.969Z,54.94
2022-08-23T06:24:10.707Z,52.95
2022-08-23T06:26:45.463Z,51.54
2022-08-23T06:29:14.493Z,52.06
2022-08-23T06:31:45.661Z,52.28
2022-08-23T06:34:19.635Z,52.48
2022-08-23T06:37:07.254Z,49.84
2022-08-23T06:39:53.197Z,49.80
2022-08-23T06:42:45.588Z,46.12
2022-08-23T06:45:15.993Z,47.39
2022-08-23T06:47:49.195Z,46.92
2022-08-23T06:50:16.261Z,47.84
2022-08-23T06:53:01.452Z,46.70
2022-08-23T06:55:52.920Z,46.45
2022-08-23T06:58:30.110Z,45.62
2022-08-23T07:01:44.214Z,44.42
2022-08-23T07:04:17.949Z,44.38
2022-08-23T07:07:07.077Z,43.42
2022-08-23T07:09:36.678Z,43.99
2022-08-23T07:12:06.058Z,45.21
2022-08-23T07:14:33.274Z,44.85
2022-08-23T07:17:02.799Z,46.19
2022-08-23T07:19:34.174Z,45.07
2022-08-23T07:22:03.065Z,44.65
2022-08-23T07:24:33.589Z,44.42
2022-08-23T07:27:06.876Z,43.10
2022-08-23T07:29:37.427Z,45.46
2022-08-23T07:32:05.756Z,45.45
2022-08-23T07:34:35.191Z,46.88
2022-08-23T07:37:02.639Z,45.88
2022-08-23T07:39:31.835Z,46.97
2022-08-23T07:42:00.542Z,47.75
2022-08-23T07:44:28.206Z,46.33
2022-08-23T07:46:55.554Z,45.93
2022-08-23T07:49:23.033Z,47.54
2022-08-23T07:51:59.062Z,49.35
2022-08-23T07:54:28.424Z,45.66
2022-08-23T07:57:08.053Z,46.30
2022-08-23T07:59:57.670Z,47.36
2022-08-23T08:02:39.440Z,46.08
2022-08-23T08:05:13.615Z,45.01
2022-08-23T08:07:43.575Z,46.39
2022-08-23T08:10:10.658Z,45.22
2022-08-23T08:12:37.732Z,46.21
2022-08-23T08:15:14.500Z,44.33
2022-08-23T08:17:41.961Z,44.15
2022-08-23T08:20:17.638Z,46.19
2022-08-23T08:23:05.702Z,45.55
2022-08-23T08:26:01.195Z,43.02
2022-08-23T08:28:28.597Z,44.69
2022-08-23T08:30:55.915Z,43.98
2022-08-23T08:33:23.061Z,45.38
2022-08-23T08:35:57.810Z,45.45
2022-08-23T08:38:28.916Z,45.49
2022-08-23T08:41:01.070Z,44.67
2022-08-23T08:43:34.893Z,43.68
2022-08-23T08:46:07.365Z,43.29
2022-08-23T08:48:42.864Z,41.67
2022-08-23T08:51:24.592Z,42.54
2022-08-23T08:53:55.480Z,44.17
2022-08-23T08:56:32.991Z,42.93
2022-08-23T08:59:19.290Z,41.90
2022-08-23T09:01:48.719Z,41.66
2022-08-23T09:04:22.495Z,41.36
2022-08-23T09:06:57.148Z,40.95
2022-08-23T09:09:46.677Z,42.05
2022-08-23T09:12:24.987Z,42.63
2022-08-23T09:15:12.996Z,40.94
2022-08-23T09:17:44.223Z,41.25
2022-08-23T09:20:15.393Z,40.94
2022-08-23T09:22:48.202Z,41.71
2022-08-23T09:25:25.887Z,40.14
2022-08-23T09:28:02.617Z,41.11
2022-08-23T09:30:49.055Z,39.05
2022-08-23T09:33:19.104Z,39.69
2022-08-23T09:36:04.490Z,40.53
2022-08-23T09:38:32.043Z,40.59
2022-08-23T09:41:19.332Z,39.99
2022-08-23T09:43:50.878Z,39.78
2022-08-23T09:46:26.901Z,42.05
2022-08-23T09:48:55.299Z,40.36
2022-08-23T09:51:29.936Z,40.77
2022-08-23T09:54:08.254Z,39.41
2022-08-23T09:56:39.307Z,38.25
2022-08-23T09:59:28.222Z,40.52
2022-08-23T10:02:16.065Z,40.02
2022-08-23T10:04:48.837Z,39.89
2022-08-23T10:07:27.703Z,39.17
2022-08-23T10:10:15.060Z,37.84
2022-08-23T10:12:44.008Z,38.05
2022-08-23T10:15:11.439Z,38.78
2022-08-23T10:17:50.037Z,38.30
2022-08-23T10:20:29.660Z,37.71
2022-08-23T10:23:16.503Z,37.76
2022-08-23T10:25:55.199Z,36.55
2022-08-23T10:28:53.508Z,38.44
2022-08-23T10:31:31.434Z,36.86
2022-08-23T10:34:10.720Z,37.41
2022-08-23T10:36:51.193Z,36.44
2022-08-23T10:39:26.011Z,36.23
2022-08-23T10:42:01.658Z,36.88
2022-08-23T10:44:35.567Z,37.34
2022-08-23T10:47:21.080Z,36.22
2022-08-23T10:49:52.175Z,36.47
2022-08-23T10:52:23.631Z,34.60
2022-08-23T10:55:06.068Z,35.52
2022-08-23T10:57:37.956Z,34.53
2022-08-23T11:00:13.197Z,35.06
2022-08-23T11:02:48.814Z,33.23
2022-08-23T11:05:31.698Z,34.73
2022-08-23T11:08:05.795Z,35.29
2022-08-23T11:10:56.207Z,36.05
2022-08-23T11:13:29.681Z,34.63
2022-08-23T11:16:01.236Z,34.04
2022-08-23T11:18:42.142Z,32.95
2022-08-23T11:21:28.432Z,34.05
2022-08-23T11:24:40.535Z,34.94
2022-08-23T11:27:07.760Z,35.39
2022-08-23T11:29:43.572Z,33.32
2022-08-23T11:32:39.588Z,33.93
2022-08-23T11:35:37.627Z,33.94
2022-08-23T11:38:10.773Z,34.06
2022-08-23T11:41:20.535Z,35.09
2022-08-23T11:43:49.486Z,34.91
2022-08-23T11:46:31.144Z,32.67
2022-08-23T11:49:54.751Z,33.38
2022-08-23T11:52:38.098Z,33.89
2022-08-23T11:55:24.335Z,32.64
2022-08-23T11:58:11.825Z,32.82
2022-08-23T12:00:59.610Z,32.76
2022-08-23T12:03:34.818Z,31.83
2022-08-23T12:06:13.166Z,31.23
2022-08-23T12:08:56.999Z,31.62
2022-08-23T12:11:25.888Z,32.15
2022-08-23T12:13:56.900Z,30.66
2022-08-23T12:16:36.134Z,31.39
2022-08-23T12:19:09.704Z,31.22
2022-08-23T12:21:47.142Z,31.29
2022-08-23T12:24:29.741Z,32.18
2022-08-23T12:27:20.827Z,31.01
2022-08-23T12:29:56.800Z,30.33
2022-08-23T12:32:33.944Z,29.86
2022-08-23T12:35:13.406Z,29.77
2022-08-23T12:37:50.050Z,28.85
2022-08-23T12:40:27.899Z,29.72
2022-08-23T12:43:04.025Z,29.18
2022-08-23T12:45:37.761Z,30.53
2022-08-23T12:48:08.306Z,29.16
2022-08-23T12:50:37.455Z,29.51
2022-08-23T12:53:07.049Z,29.59
2022-08-23T12:55:38.357Z,29.81
2022-08-23T12:58:06.382Z,29.83
2022-08-23T13:00:36.285Z,30.56
2022-08-23T13:03:06.860Z,30.97
2022-08-23T13:05:36.986Z,31.62
2022-08-23T13:08:08.458Z,31.26
2022-08-23T13:10:39.169Z,31.06
2022-08-23T13:13:08.565Z,29.25
2022-08-23T13:15:51.899Z,29.80
2022-08-23T13:18:30.457Z,30.01
2022-08-23T13:21:17.506Z,29.03
2022-08-23T13:23:45.095Z,28.78
2022-08-23T13:26:36.903Z,27.90
2022-08-23T13:29:13.316Z,28.88
2022-08-23T13:31:49.547Z,28.80
2022-08-23T13:34:34.636Z,28.68
2022-08-23T13:37:04.187Z,29.51
2022-08-23T13:39:33.147Z,29.55
2022-08-23T13:42:01.673Z,29.59
2022-08-23T13:44:31.609Z,29.25
2022-08-23T13:46:58.553Z,28.55
2022-08-23T13:49:28.707Z,28.76
2022-08-23T13:52:45.565Z,26.99
2022-08-23T13:54:57.135Z,27.96
2022-08-23T13:57:29.598Z,27.67
2022-08-23T13:59:59.032Z,27.13
2022-08-23T14:02:26.606Z,26.49
2022-08-23T14:04:53.513Z,25.90
2022-08-23T14:07:21.117Z,26.42
2022-08-23T14:09:50.974Z,26.56
2022-08-23T14:12:24.008Z,27.06
2022-08-23T14:14:52.177Z,26.37
2022-08-23T14:17:20.547Z,26.77
2022-08-23T14:20:32.937Z,26.65
2022-08-23T14:22:35.854Z,26.93
2022-08-23T14:25:02.799Z,26.61
2022-08-23T14:27:29.722Z,27.59
2022-08-23T14:29:57.964Z,28.24
2022-08-23T14:32:25.548Z,28.22
2022-08-23T14:34:57.176Z,27.05
2022-08-23T14:40:11.710Z,27.50
2022-08-23T14:42:38.701Z,27.18
2022-08-23T14:45:08.254Z,26.54
2022-08-23T14:47:38.039Z,26.26
2022-08-23T14:50:09.347Z,27.48
2022-08-23T14:52:38.313Z,28.57
2022-08-23T14:55:06.114Z,29.21
2022-08-23T14:57:33.065Z,28.64
2022-08-23T14:59:59.982Z,27.95
2022-08-23T15:02:29.790Z,28.38
2022-08-23T15:04:57.135Z,26.96
2022-08-23T15:07:24.139Z,27.59
2022-08-23T15:10:04.904Z,27.08
2022-08-23T15:15:22.023Z,26.29
2022-08-23T15:17:55.106Z,26.55
2022-08-23T15:20:24.795Z,27.40
2022-08-23T15:23:05.365Z,26.76
2022-08-23T15:25:35.393Z,26.67
2022-08-23T15:28:02.443Z,25.71
2022-08-23T15:30:32.426Z,26.17
2022-08-23T15:33:01.716Z,26.85
2022-08-23T15:35:33.992Z,27.06
2022-08-23T15:38:00.839Z,27.54
2022-08-23T15:40:27.800Z,28.32
2022-08-23T15:42:54.788Z,26.83
2022-08-23T15:45:22.017Z,27.61
2022-08-23T15:47:51.733Z,27.94
2022-08-23T15:50:21.969Z,27.59
2022-08-23T15:52:48.876Z,27.65
2022-08-23T15:55:16.539Z,27.54
2022-08-23T15:57:47.070Z,27.80
2022-08-23T16:00:17.629Z,28.66
2022-08-23T16:03:06.472Z,27.82
2022-08-23T16:05:33.143Z,27.43
2022-08-23T16:08:00.101Z,27.21
2022-08-23T16:10:28.356Z,27.50
2022-08-23T16:12:55.524Z,28.44
2022-08-23T16:15:22.772Z,27.23
2022-08-23T16:17:49.750Z,27.90
2022-08-23T16:20:17.202Z,27.63
2022-08-23T16:22:45.451Z,28.68
2022-08-23T16:25:12.301Z,28.86
2022-08-23T16:27:39.172Z,28.84
2022-08-23T16:30:07.877Z,28.74
2022-08-23T16:32:36.752Z,28.18
2022-08-23T16:35:04.478Z,28.70
2022-08-23T16:37:31.334Z,28.92
2022-08-23T16:39:59.892Z,29.53
2022-08-23T16:42:26.833Z,29.82
2022-08-23T16:44:53.675Z,30.59
2022-08-23T16:47:20.676Z,29.87
2022-08-23T16:49:47.631Z,29.91
2022-08-23T16:52:15.249Z,29.83
2022-08-23T16:54:42.597Z,29.94
2022-08-23T16:57:10.852Z,29.73
2022-08-23T16:59:40.539Z,30.65
2022-08-23T17:02:18.374Z,30.47
2022-08-23T17:04:47.733Z,30.54
2022-08-23T17:07:16.563Z,30.53
2022-08-23T17:09:43.545Z,30.83
2022-08-23T17:12:11.840Z,30.82
2022-08-23T17:14:39.147Z,30.89
2022-08-23T17:17:06.053Z,31.30
2022-08-23T17:19:32.935Z,31.53
2022-08-23T17:22:00.066Z,31.67
2022-08-23T17:24:26.928Z,31.57
2022-08-23T17:26:53.840Z,31.24
2022-08-23T17:29:22.141Z,31.01
2022-08-23T17:31:49.231Z,31.15
2022-08-23T17:34:16.190Z,31.78
2022-08-23T17:36:47.750Z,32.30
2022-08-23T17:39:17.511Z,33.18
2022-08-23T17:41:45.550Z,33.07
2022-08-23T17:44:13.354Z,33.46
2022-08-23T17:46:44.846Z,33.87
2022-08-23T17:49:12.606Z,34.20
2022-08-23T17:51:41.097Z,34.14
2022-08-23T17:54:10.051Z,34.28
2022-08-23T17:56:38.102Z,34.77
2022-08-23T17:59:08.816Z,34.87
2022-08-23T18:01:36.185Z,34.86
2022-08-23T18:04:05.975Z,35.31
2022-08-23T18:06:33.966Z,35.75
2022-08-23T18:09:02.874Z,36.31
2022-08-23T18:11:29.848Z,37.17
2022-08-23T18:13:56.781Z,37.17
2022-08-23T18:16:33.004Z,37.23
2022-08-23T18:19:02.820Z,37.50
2022-08-23T18:21:31.324Z,37.86
2022-08-23T18:23:59.041Z,38.43
2022-08-23T18:26:45.011Z,39.01
2022-08-23T18:29:14.396Z,38.99
2022-08-23T18:31:43.502Z,39.23
2022-08-23T18:34:11.252Z,39.23
2022-08-23T18:36:39.676Z,40.18
2022-08-23T18:39:08.588Z,39.97
2022-08-23T18:41:35.871Z,40.27
2022-08-23T18:44:05.443Z,40.63
2022-08-23T18:46:33.790Z,40.30
2022-08-23T18:49:00.890Z,41.00
2022-08-23T18:51:28.574Z,41.32
2022-08-23T18:53:57.130Z,43.26
2022-08-23T18:56:24.343Z,43.71
2022-08-23T18:58:51.642Z,44.50
2022-08-23T19:01:23.776Z,44.98
2022-08-23T19:03:51.092Z,45.40
2022-08-23T19:06:18.124Z,45.58
2022-08-23T19:08:45.357Z,48.42
2022-08-23T19:11:14.009Z,48.69
2022-08-23T19:13:40.874Z,49.17
2022-08-23T19:16:12.765Z,49.96
2022-08-23T19:18:40.295Z,49.39
2022-08-23T19:21:07.331Z,50.31
2022-08-23T19:23:35.347Z,50.79
2022-08-23T19:26:03.058Z,50.93
2022-08-23T19:28:33.573Z,51.06
2022-08-23T19:31:00.971Z,51.29
2022-08-23T19:33:27.842Z,51.59
2022-08-23T19:35:55.431Z,51.33
2022-08-23T19:38:25.459Z,51.56
2022-08-23T19:40:52.354Z,50.97
2022-08-23T19:43:19.184Z,51.21
2022-08-23T19:45:47.556Z,51.56
2022-08-23T19:48:14.451Z,53.39
2022-08-23T19:50:41.780Z,53.60
2022-08-23T19:53:08.806Z,54.18
2022-08-23T19:55:38.915Z,54.34
2022-08-23T19:58:06.524Z,54.51
2022-08-23T20:00:34.185Z,53.95
2022-08-23T20:03:02.625Z,53.65
2022-08-23T20:05:29.836Z,54.02
2022-08-23T20:07:56.751Z,55.75
2022-08-23T20:10:23.786Z,56.78
2022-08-23T20:12:50.610Z,57.10
2022-08-23T20:15:17.644Z,57.14
2022-08-23T20:17:44.866Z,56.89
2022-08-23T20:20:13.957Z,56.36
2022-08-23T20:22:59.611Z,56.04
2022-08-23T20:25:26.692Z,55.58
2022-08-23T20:27:53.797Z,55.34
2022-08-23T20:30:22.162Z,55.28
2022-08-23T20:32:49.025Z,55.52
2022-08-23T20:35:17.688Z,56.12
2022-08-23T20:37:44.545Z,56.31
2022-08-23T20:40:11.828Z,56.73
2022-08-23T20:42:39.460Z,56.80
2022-08-23T20:45:07.274Z,56.45
2022-08-23T20:47:35.105Z,56.88
2022-08-23T20:50:02.153Z,58.53
2022-08-23T20:52:34.434Z,57.70
2022-08-23T20:55:01.942Z,57.45
2022-08-23T20:57:31.969Z,57.58
2022-08-23T21:00:06.065Z,57.76
2022-08-23T21:02:32.963Z,57.71
2022-08-23T21:04:59.829Z,58.19
2022-08-23T21:07:27.960Z,58.08
2022-08-23T21:09:56.929Z,58.28
2022-08-23T21:12:23.837Z,58.09
2022-08-23T21:14:50.791Z,58.18
2022-08-23T21:17:17.637Z,58.91
2022-08-23T21:19:44.495Z,58.71
2022-08-23T21:22:11.446Z,59.04
2022-08-23T21:24:38.528Z,58.92
2022-08-23T21:27:09.612Z,59.23
2022-08-23T21:29:37.436Z,60.32
2022-08-23T21:32:04.346Z,60.66
2022-08-23T21:34:31.206Z,60.35
2022-08-23T21:36:58.241Z,60.93
2022-08-23T21:39:25.723Z,61.17
2022-08-23T21:41:52.650Z,60.76
2022-08-23T21:44:21.158Z,61.27
2022-08-23T21:46:48.573Z,60.99
2022-08-23T21:49:20.816Z,61.18
2022-08-23T21:51:49.198Z,61.42
2022-08-23T21:54:18.303Z,62.18
2022-08-23T21:56:45.944Z,61.94
2022-08-23T21:59:15.285Z,62.30
2022-08-23T22:01:44.002Z,62.39
2022-08-23T22:04:13.346Z,63.08
2022-08-23T22:06:41.574Z,62.93
2022-08-23T22:09:11.053Z,62.38
2022-08-23T22:11:41.727Z,62.84
2022-08-23T22:14:09.352Z,63.16
2022-08-23T22:16:37.228Z,63.00
2022-08-23T22:19:05.485Z,63.50
2022-08-23T22:21:35.592Z,62.99
2022-08-23T22:24:02.902Z,62.69
2022-08-23T22:26:30.292Z,62.65
2022-08-23T22:28:57.297Z,63.08
2022-08-23T22:31:24.619Z,63.82
2022-08-23T22:33:52.850Z,64.33
2022-08-23T22:36:23.064Z,64.61
2022-08-23T22:38:50.977Z,66.07
2022-08-23T22:41:20.256Z,66.99
2022-08-23T22:43:47.179Z,66.38
2022-08-23T22:46:14.412Z,65.38
2022-08-23T22:48:41.581Z,64.74
2022-08-23T22:51:12.520Z,64.64
2022-08-23T22:53:44.416Z,64.19
2022-08-23T22:56:13.559Z,64.32
2022-08-23T22:58:40.900Z,64.01
2022-08-23T23:01:13.331Z,64.18
2022-08-23T23:03:41.936Z,64.48
2022-08-23T23:06:09.079Z,64.12
2022-08-23T23:08:35.918Z,64.66
2022-08-23T23:11:06.348Z,64.44
2022-08-23T23:13:33.516Z,64.70
2022-08-23T23:16:02.895Z,64.46
2022-08-23T23:18:30.049Z,64.69
2022-08-23T23:20:58.460Z,64.85
2022-08-23T23:23:26.070Z,65.00
2022-08-23T23:25:53.026Z,65.10
2022-08-23T23:28:21.918Z,64.94
2022-08-23T23:30:51.242Z,65.81
2022-08-23T23:33:19.439Z,65.50
2022-08-23T23:35:47.207Z,65.44
2022-08-23T23:38:14.477Z,66.44
2022-08-23T23:40:41.456Z,66.13
2022-08-23T23:43:10.041Z,67.02
2022-08-23T23:45:41.055Z,69.28
2022-08-23T23:48:08.846Z,69.19
2022-08-23T23:50:36.625Z,68.14
2022-08-23T23:53:04.557Z,67.55
2022-08-23T23:55:31.486Z,67.39
2022-08-23T23:57:58.608Z,67.88
